createdAt,value
2023-04-16T00:01:44.454Z,14.98
2023-04-16T00:04:14.045Z,14.60
2023-04-16T00:06:42.080Z,14.00
2023-04-16T00:09:10.080Z,14.40
2023-04-16T00:11:38.081Z,14.38
2023-04-16T00:14:06.078Z,16.08
2023-04-16T00:16:34.035Z,14.40
2023-04-16T00:19:01.915Z,14.95
2023-04-16T00:21:31.226Z,15.18
2023-04-16T00:23:59.103Z,15.38
2023-04-16T00:26:26.957Z,15.10
2023-04-16T00:28:55.534Z,15.10
2023-04-16T00:31:27.944Z,14.68
2023-04-16T00:33:57.303Z,14.60
2023-04-16T00:36:25.426Z,13.77
2023-04-16T00:38:55.078Z,14.52
2023-04-16T00:41:23.358Z,14.98
2023-04-16T00:43:51.693Z,14.65
2023-04-16T00:46:21.413Z,13.70
2023-04-16T00:48:50.132Z,12.07
2023-04-16T00:51:18.405Z,11.70
2023-04-16T00:53:46.815Z,12.27
2023-04-16T00:56:17.670Z,11.88
2023-04-16T00:58:46.322Z,10.63
2023-04-16T01:01:15.159Z,11.25
2023-04-16T01:03:44.953Z,12.23
2023-04-16T01:06:13.517Z,11.48
2023-04-16T01:08:41.504Z,11.55
2023-04-16T01:11:09.611Z,11.20
2023-04-16T01:13:39.831Z,11.32
2023-04-16T01:16:08.830Z,12.15
2023-04-16T01:18:37.044Z,12.05
2023-04-16T01:21:06.881Z,11.15
2023-04-16T01:23:35.091Z,11.90
2023-04-16T01:26:03.497Z,11.15
2023-04-16T01:28:31.365Z,11.57
2023-04-16T01:30:59.473Z,11.65
2023-04-16T01:33:41.627Z,11.57
2023-04-16T01:36:12.291Z,11.20
2023-04-16T01:38:40.249Z,11.18
2023-04-16T01:41:08.138Z,11.20
2023-04-16T01:43:39.629Z,9.65
2023-04-16T01:46:15.402Z,10.23
2023-04-16T01:48:44.499Z,10.27
2023-04-16T01:51:13.793Z,10.18
2023-04-16T01:53:42.599Z,9.68
2023-04-16T01:56:10.601Z,9.48
2023-04-16T01:58:38.548Z,9.68
2023-04-16T02:01:06.894Z,9.90
2023-04-16T02:03:35.443Z,9.95
2023-04-16T02:06:05.087Z,9.63
2023-04-16T02:08:34.342Z,8.80
2023-04-16T02:11:02.369Z,9.07
2023-04-16T02:13:30.572Z,9.82
2023-04-16T02:15:58.753Z,9.65
2023-04-16T02:18:38.731Z,9.80
2023-04-16T02:21:07.906Z,8.93
2023-04-16T02:23:37.616Z,8.93
2023-04-16T02:26:05.633Z,8.75
2023-04-16T02:28:33.915Z,9.27
2023-04-16T02:31:02.019Z,9.68
2023-04-16T02:33:36.230Z,9.13
2023-04-16T02:36:04.961Z,9.10
2023-04-16T02:38:33.229Z,8.48
2023-04-16T02:41:02.678Z,8.18
2023-04-16T02:43:30.533Z,9.68
2023-04-16T02:45:59.469Z,9.93
2023-04-16T02:48:27.482Z,8.93
2023-04-16T02:50:55.758Z,8.68
2023-04-16T02:53:23.876Z,8.15
2023-04-16T02:55:53.667Z,9.05
2023-04-16T02:58:24.071Z,9.50
2023-04-16T03:00:52.728Z,9.52
2023-04-16T03:03:21.315Z,9.40
2023-04-16T03:05:49.301Z,9.65
2023-04-16T03:08:17.713Z,8.93
2023-04-16T03:10:45.746Z,9.52
2023-04-16T03:13:15.590Z,9.25
2023-04-16T03:15:50.762Z,8.73
2023-04-16T03:18:18.712Z,10.57
2023-04-16T03:20:46.684Z,9.13
2023-04-16T03:23:14.588Z,10.38
2023-04-16T03:25:44.634Z,11.00
2023-04-16T03:28:12.583Z,9.77
2023-04-16T03:30:40.471Z,10.77
2023-04-16T03:33:10.758Z,11.63
2023-04-16T03:35:38.822Z,9.55
2023-04-16T03:38:06.860Z,11.50
2023-04-16T03:40:34.810Z,10.55
2023-04-16T03:43:03.001Z,10.73
2023-04-16T03:45:30.890Z,10.27
2023-04-16T03:47:59.325Z,10.48
2023-04-16T03:50:29.137Z,10.73
2023-04-16T03:52:57.367Z,11.57
2023-04-16T03:55:25.307Z,11.32
2023-04-16T03:57:53.297Z,10.40
2023-04-16T04:00:21.246Z,11.43
2023-04-16T04:02:59.482Z,10.15
2023-04-16T04:05:32.645Z,11.43
2023-04-16T04:08:00.569Z,10.25
2023-04-16T04:10:30.315Z,10.93
2023-04-16T04:12:59.236Z,9.50
2023-04-16T04:15:27.162Z,9.63
2023-04-16T04:17:56.092Z,9.63
2023-04-16T04:20:24.493Z,10.13
2023-04-16T04:22:55.064Z,14.35
2023-04-16T04:25:26.217Z,17.15
2023-04-16T04:27:54.310Z,15.00
2023-04-16T04:30:22.152Z,10.48
2023-04-16T04:32:50.111Z,9.75
2023-04-16T04:35:18.377Z,10.63
2023-04-16T04:37:46.218Z,9.98
2023-04-16T04:40:19.904Z,10.80
2023-04-16T04:42:47.963Z,10.98
2023-04-16T04:45:16.646Z,9.13
2023-04-16T04:47:44.500Z,10.15
2023-04-16T04:50:12.613Z,8.95
2023-04-16T04:52:42.737Z,8.80
2023-04-16T04:55:10.890Z,8.82
2023-04-16T04:57:40.346Z,9.23
2023-04-16T05:00:09.023Z,9.55
2023-04-16T05:02:45.647Z,8.93
2023-04-16T05:05:13.647Z,9.77
2023-04-16T05:07:41.585Z,10.45
2023-04-16T05:10:10.142Z,9.60
2023-04-16T05:12:38.001Z,10.50
2023-04-16T05:15:07.960Z,10.43
2023-04-16T05:17:35.878Z,10.27
2023-04-16T05:20:03.814Z,9.18
2023-04-16T05:22:32.207Z,9.82
2023-04-16T05:25:00.187Z,8.82
2023-04-16T05:27:28.040Z,8.88
2023-04-16T05:29:55.900Z,8.20
2023-04-16T05:32:26.101Z,9.13
2023-04-16T05:34:54.181Z,8.15
2023-04-16T05:37:22.029Z,8.55
2023-04-16T05:39:49.928Z,8.18
2023-04-16T05:42:17.790Z,8.68
2023-04-16T05:44:45.815Z,8.25
2023-04-16T05:47:13.723Z,8.18
2023-04-16T05:49:43.063Z,8.23
2023-04-16T05:52:11.033Z,7.25
2023-04-16T05:54:38.888Z,7.68
2023-04-16T05:57:06.765Z,6.78
2023-04-16T05:59:35.304Z,7.10
2023-04-16T06:02:03.296Z,6.50
2023-04-16T06:04:31.972Z,7.22
2023-04-16T06:07:01.342Z,6.57
2023-04-16T06:09:29.399Z,7.22
2023-04-16T06:11:57.994Z,6.90
2023-04-16T06:14:26.003Z,11.05
2023-04-16T06:16:53.830Z,6.60
2023-04-16T06:19:21.677Z,7.32
2023-04-16T06:21:49.475Z,7.13
2023-04-16T06:24:18.781Z,7.00
2023-04-16T06:26:46.719Z,6.45
2023-04-16T06:29:14.661Z,6.93
2023-04-16T06:31:42.569Z,7.82
2023-04-16T06:34:10.528Z,7.75
2023-04-16T06:36:38.792Z,8.35
2023-04-16T06:39:06.781Z,7.82
2023-04-16T06:41:36.450Z,9.00
2023-04-16T06:44:04.364Z,7.55
2023-04-16T06:46:32.320Z,7.75
2023-04-16T06:49:00.168Z,7.75
2023-04-16T06:51:28.137Z,7.55
2023-04-16T06:53:55.958Z,6.75
2023-04-16T06:56:23.836Z,7.57
2023-04-16T06:58:53.128Z,7.57
2023-04-16T07:01:21.171Z,7.97
2023-04-16T07:03:49.267Z,7.28
2023-04-16T07:06:17.425Z,7.72
2023-04-16T07:08:45.413Z,7.05
2023-04-16T07:11:13.238Z,6.32
2023-04-16T07:13:41.495Z,6.53
2023-04-16T07:16:10.865Z,6.28
2023-04-16T07:18:39.602Z,6.68
2023-04-16T07:21:07.518Z,6.72
2023-04-16T07:23:35.373Z,6.22
2023-04-16T07:26:03.198Z,6.05
2023-04-16T07:28:31.212Z,6.20
2023-04-16T07:30:59.063Z,6.00
2023-04-16T07:33:28.382Z,6.03
2023-04-16T07:35:56.605Z,6.55
2023-04-16T07:38:24.420Z,5.80
2023-04-16T07:40:52.383Z,5.82
2023-04-16T07:43:20.340Z,5.35
2023-04-16T07:45:48.473Z,5.18
2023-04-16T07:48:16.297Z,6.32
2023-04-16T07:50:45.724Z,6.32
2023-04-16T07:53:13.556Z,5.80
2023-04-16T07:55:42.313Z,5.47
2023-04-16T07:58:10.662Z,5.43
2023-04-16T08:00:38.848Z,5.75
2023-04-16T08:03:06.979Z,5.72
2023-04-16T08:05:35.092Z,4.88
2023-04-16T08:08:04.354Z,4.95
2023-04-16T08:10:34.072Z,4.82
2023-04-16T08:13:02.118Z,4.28
2023-04-16T08:15:30.070Z,4.25
2023-04-16T08:17:58.135Z,3.67
2023-04-16T08:20:26.201Z,3.60
2023-04-16T08:22:55.863Z,4.18
2023-04-16T08:25:25.163Z,4.35
2023-04-16T08:27:53.055Z,4.18
2023-04-16T08:30:22.181Z,4.47
2023-04-16T08:32:50.573Z,3.90
2023-04-16T08:35:18.732Z,3.60
2023-04-16T08:37:46.557Z,3.90
2023-04-16T08:40:14.603Z,3.38
2023-04-16T08:42:46.908Z,4.00
2023-04-16T08:45:15.608Z,3.60
2023-04-16T08:47:45.546Z,6.15
2023-04-16T08:50:15.757Z,4.82
2023-04-16T08:52:47.013Z,3.60
2023-04-16T08:55:15.553Z,4.60
2023-04-16T08:57:48.870Z,4.72
2023-04-16T09:00:17.254Z,4.03
2023-04-16T09:02:45.435Z,5.07
2023-04-16T09:05:17.142Z,4.38
2023-04-16T09:07:46.257Z,3.80
2023-04-16T09:10:15.691Z,3.60
2023-04-16T09:12:44.162Z,3.60
2023-04-16T09:15:14.312Z,4.20
2023-04-16T09:17:42.267Z,4.63
2023-04-16T09:20:11.286Z,3.70
2023-04-16T09:22:40.200Z,4.72
2023-04-16T09:25:08.630Z,4.38
2023-04-16T09:27:36.992Z,3.65
2023-04-16T09:30:21.757Z,4.03
2023-04-16T09:32:51.490Z,3.85
2023-04-16T09:35:19.993Z,4.05
2023-04-16T09:37:56.613Z,3.88
2023-04-16T09:40:30.556Z,7.60
2023-04-16T09:42:58.682Z,10.63
2023-04-16T09:45:26.472Z,5.32
2023-04-16T09:48:03.541Z,4.20
2023-04-16T09:50:31.457Z,3.65
2023-04-16T09:53:03.129Z,3.78
2023-04-16T09:55:31.062Z,3.70
2023-04-16T09:58:02.302Z,4.28
2023-04-16T10:00:30.651Z,3.92
2023-04-16T10:03:06.786Z,3.63
2023-04-16T10:05:35.067Z,4.05
2023-04-16T10:08:03.158Z,12.82
2023-04-16T10:10:31.106Z,3.60
2023-04-16T10:12:59.170Z,4.10
2023-04-16T10:15:27.047Z,3.70
2023-04-16T10:17:55.278Z,4.28
2023-04-16T10:20:25.027Z,3.05
2023-04-16T10:22:54.115Z,2.60
2023-04-16T10:25:22.582Z,2.35
2023-04-16T10:27:51.170Z,3.50
2023-04-16T10:30:19.578Z,3.40
2023-04-16T10:32:47.696Z,3.13
2023-04-16T10:35:16.862Z,3.80
2023-04-16T10:37:46.427Z,3.13
2023-04-16T10:40:23.777Z,3.17
2023-04-16T10:42:55.391Z,3.40
2023-04-16T10:45:27.502Z,3.63
2023-04-16T10:47:57.101Z,3.05
2023-04-16T10:50:25.029Z,2.35
2023-04-16T10:53:07.751Z,6.18
2023-04-16T10:55:39.583Z,2.65
2023-04-16T10:58:27.912Z,4.53
2023-04-16T11:00:55.866Z,1.50
2023-04-16T11:03:23.950Z,3.33
2023-04-16T11:05:51.972Z,1.00
2023-04-16T11:08:19.904Z,1.52
2023-04-16T11:10:49.408Z,1.55
2023-04-16T11:13:17.650Z,1.23
2023-04-16T11:15:45.553Z,1.50
2023-04-16T11:18:13.526Z,1.45
2023-04-16T11:20:42.623Z,10.57
2023-04-16T11:23:13.275Z,2.22
2023-04-16T11:25:41.652Z,2.78
2023-04-16T11:28:11.034Z,1.20
2023-04-16T11:30:40.655Z,1.17
2023-04-16T11:33:09.566Z,1.52
2023-04-16T11:35:38.056Z,2.33
2023-04-16T11:38:06.423Z,1.10
2023-04-16T11:40:34.937Z,1.30
2023-04-16T11:43:04.039Z,1.52
2023-04-16T11:45:33.362Z,1.40
2023-04-16T11:48:01.275Z,1.60
2023-04-16T11:50:29.748Z,1.25
2023-04-16T11:52:58.597Z,2.13
2023-04-16T11:55:26.625Z,1.83
2023-04-16T11:57:54.470Z,1.90
2023-04-16T12:00:24.713Z,1.50
2023-04-16T12:02:55.157Z,1.35
2023-04-16T12:05:31.196Z,2.35
2023-04-16T12:07:59.472Z,1.52
2023-04-16T12:10:27.548Z,8.98
2023-04-16T12:12:55.547Z,2.10
2023-04-16T12:15:25.457Z,1.50
2023-04-16T12:18:07.219Z,1.33
2023-04-16T12:20:40.406Z,1.23
2023-04-16T12:23:08.529Z,1.77
2023-04-16T12:25:36.984Z,1.70
2023-04-16T12:28:05.100Z,1.30
2023-04-16T12:30:33.057Z,1.30
2023-04-16T12:33:19.035Z,1.70
2023-04-16T12:35:47.175Z,1.70
2023-04-16T12:38:15.597Z,2.60
2023-04-16T12:40:45.616Z,2.42
2023-04-16T12:43:14.528Z,1.60
2023-04-16T12:45:43.490Z,1.90
2023-04-16T12:48:11.575Z,1.38
2023-04-16T12:50:44.183Z,1.35
2023-04-16T12:53:12.774Z,1.35
2023-04-16T12:55:40.768Z,1.30
2023-04-16T12:58:11.879Z,1.20
2023-04-16T13:00:40.853Z,1.20
2023-04-16T13:03:08.955Z,1.40
2023-04-16T13:05:37.180Z,1.40
2023-04-16T13:08:06.652Z,1.25
2023-04-16T13:10:34.704Z,1.30
2023-04-16T13:13:02.755Z,1.10
2023-04-16T13:15:30.914Z,1.20
2023-04-16T13:17:58.951Z,1.80
2023-04-16T13:20:27.205Z,3.83
2023-04-16T13:22:55.184Z,4.40
2023-04-16T13:25:24.608Z,1.33
2023-04-16T13:27:52.685Z,1.20
2023-04-16T13:30:20.694Z,1.10
2023-04-16T13:32:48.777Z,1.13
2023-04-16T13:35:16.743Z,1.20
2023-04-16T13:37:45.499Z,1.75
2023-04-16T13:40:13.428Z,1.38
2023-04-16T13:42:42.784Z,1.60
2023-04-16T13:45:11.405Z,1.58
2023-04-16T13:47:39.741Z,1.90
2023-04-16T13:50:07.962Z,1.30
2023-04-16T13:52:36.489Z,1.10
2023-04-16T13:55:04.552Z,1.60
2023-04-16T13:57:32.546Z,1.20
2023-04-16T14:00:01.845Z,1.10
2023-04-16T14:02:32.773Z,1.25
2023-04-16T14:05:01.006Z,1.58
2023-04-16T14:07:29.360Z,1.08
2023-04-16T14:09:57.270Z,1.45
2023-04-16T14:12:25.428Z,1.50
2023-04-16T14:14:53.381Z,1.40
2023-04-16T14:17:22.708Z,2.45
2023-04-16T14:19:51.044Z,1.40
2023-04-16T14:22:19.494Z,2.17
2023-04-16T14:24:48.204Z,1.70
2023-04-16T14:27:17.229Z,1.88
2023-04-16T14:29:46.696Z,1.35
2023-04-16T14:32:15.020Z,1.35
2023-04-16T14:34:44.449Z,1.55
2023-04-16T14:37:12.548Z,1.45
2023-04-16T14:39:40.615Z,1.58
2023-04-16T14:42:08.595Z,1.40
2023-04-16T14:44:36.541Z,2.13
2023-04-16T14:47:04.719Z,2.28
2023-04-16T14:49:32.602Z,2.28
2023-04-16T14:52:05.786Z,3.05
2023-04-16T14:54:34.473Z,1.65
2023-04-16T14:57:03.569Z,1.48
2023-04-16T14:59:32.400Z,1.50
2023-04-16T15:02:00.516Z,1.30
2023-04-16T15:04:28.856Z,1.05
2023-04-16T15:06:59.000Z,1.27
2023-04-16T15:09:28.566Z,1.45
2023-04-16T15:11:57.089Z,1.25
2023-04-16T15:14:25.101Z,1.17
2023-04-16T15:16:53.062Z,2.42
2023-04-16T15:19:21.047Z,3.53
2023-04-16T15:21:49.296Z,2.60
2023-04-16T15:24:17.239Z,1.75
2023-04-16T15:26:46.734Z,1.60
2023-04-16T15:29:14.683Z,6.00
2023-04-16T15:31:42.560Z,1.50
2023-04-16T15:34:10.701Z,1.63
2023-04-16T15:36:38.831Z,1.33
2023-04-16T15:39:06.771Z,1.42
2023-04-16T15:41:37.005Z,1.52
2023-04-16T15:44:06.908Z,2.20
2023-04-16T15:46:34.979Z,1.17
2023-04-16T15:49:02.978Z,1.33
2023-04-16T15:51:31.821Z,1.40
2023-04-16T15:53:59.842Z,0.90
2023-04-16T15:56:27.995Z,1.35
2023-04-16T15:58:56.037Z,1.65
2023-04-16T16:01:25.461Z,0.80
2023-04-16T16:03:53.916Z,1.30
2023-04-16T16:06:22.056Z,1.05
2023-04-16T16:08:50.269Z,0.98
2023-04-16T16:11:18.217Z,2.22
2023-04-16T16:13:46.260Z,1.33
2023-04-16T16:16:14.856Z,1.35
2023-04-16T16:18:44.340Z,1.30
2023-04-16T16:21:12.329Z,1.10
2023-04-16T16:23:40.216Z,1.15
2023-04-16T16:26:08.177Z,1.00
2023-04-16T16:28:37.730Z,1.40
2023-04-16T16:31:06.193Z,3.38
2023-04-16T16:33:34.297Z,1.65
2023-04-16T16:36:04.161Z,1.20
2023-04-16T16:38:32.263Z,2.20
2023-04-16T16:41:02.097Z,1.20
2023-04-16T16:43:31.864Z,1.50
2023-04-16T16:46:00.073Z,1.50
2023-04-16T16:48:28.426Z,1.52
2023-04-16T16:50:57.075Z,1.70
2023-04-16T16:53:27.355Z,2.08
2023-04-16T16:55:55.457Z,1.40
2023-04-16T16:58:23.409Z,1.40
2023-04-16T17:00:51.437Z,3.05
2023-04-16T17:03:19.808Z,1.90
2023-04-16T17:05:47.777Z,2.03
2023-04-16T17:08:15.773Z,1.45
2023-04-16T17:10:45.101Z,2.00
2023-04-16T17:13:13.706Z,1.88
2023-04-16T17:15:41.911Z,2.20
2023-04-16T17:18:09.868Z,2.33
2023-04-16T17:20:38.075Z,1.70
2023-04-16T17:23:06.257Z,2.08
2023-04-16T17:25:34.306Z,2.80
2023-04-16T17:28:03.833Z,2.30
2023-04-16T17:30:34.405Z,2.15
2023-04-16T17:33:04.611Z,2.08
2023-04-16T17:35:32.859Z,2.42
2023-04-16T17:38:01.339Z,2.20
2023-04-16T17:40:29.215Z,2.35
2023-04-16T17:42:57.322Z,2.55
2023-04-16T17:45:26.657Z,2.00
2023-04-16T17:47:54.806Z,1.90
2023-04-16T17:50:22.755Z,2.20
2023-04-16T17:52:50.921Z,2.45
2023-04-16T17:55:18.875Z,1.52
2023-04-16T17:57:46.845Z,1.50
2023-04-16T18:00:16.263Z,1.95
2023-04-16T18:02:46.056Z,2.38
2023-04-16T18:05:15.136Z,2.20
2023-04-16T18:07:43.777Z,2.22
2023-04-16T18:10:11.934Z,3.78
2023-04-16T18:12:39.891Z,2.53
2023-04-16T18:15:08.338Z,2.97
2023-04-16T18:17:36.374Z,2.58
2023-04-16T18:20:07.227Z,2.38
2023-04-16T18:22:35.131Z,2.55
2023-04-16T18:25:03.554Z,2.58
2023-04-16T18:27:31.446Z,2.75
2023-04-16T18:29:59.541Z,2.60
2023-04-16T18:32:30.776Z,2.60
2023-04-16T18:34:59.371Z,3.03
2023-04-16T18:37:28.658Z,2.40
2023-04-16T18:39:58.132Z,2.67
2023-04-16T18:42:28.102Z,2.45
2023-04-16T18:44:56.961Z,2.42
2023-04-16T18:47:24.882Z,3.10
2023-04-16T18:49:53.055Z,2.70
2023-04-16T18:52:21.109Z,2.88
2023-04-16T18:54:50.530Z,3.00
2023-04-16T18:57:18.341Z,3.45
2023-04-16T18:59:46.329Z,2.75
2023-04-16T19:02:14.284Z,2.40
2023-04-16T19:04:42.206Z,2.38
2023-04-16T19:07:10.033Z,3.08
2023-04-16T19:09:38.973Z,2.55
2023-04-16T19:12:08.524Z,2.45
2023-04-16T19:14:36.418Z,2.70
2023-04-16T19:17:04.364Z,2.67
2023-04-16T19:19:35.656Z,2.70
2023-04-16T19:22:03.876Z,2.10
2023-04-16T19:24:34.018Z,2.83
2023-04-16T19:27:02.741Z,2.58
2023-04-16T19:29:35.204Z,3.30
2023-04-16T19:32:03.373Z,2.92
2023-04-16T19:34:31.397Z,2.88
2023-04-16T19:36:59.413Z,2.33
2023-04-16T19:39:27.405Z,3.13
2023-04-16T19:41:56.142Z,3.28
2023-04-16T19:44:24.265Z,2.45
2023-04-16T19:46:55.707Z,2.70
2023-04-16T19:49:25.378Z,2.45
2023-04-16T19:51:54.810Z,2.40
2023-04-16T19:54:22.765Z,2.08
2023-04-16T19:56:51.743Z,2.70
2023-04-16T19:59:20.610Z,2.28
2023-04-16T20:01:48.799Z,2.72
2023-04-16T20:04:18.618Z,2.33
2023-04-16T20:06:46.703Z,2.60
2023-04-16T20:09:14.681Z,2.58
2023-04-16T20:11:42.598Z,2.90
2023-04-16T20:14:10.715Z,1.80
2023-04-16T20:16:38.779Z,2.10
2023-04-16T20:19:08.710Z,2.10
2023-04-16T20:21:40.326Z,2.40
2023-04-16T20:24:10.601Z,1.77
2023-04-16T20:26:38.504Z,1.90
2023-04-16T20:29:06.555Z,2.30
2023-04-16T20:31:34.460Z,2.67
2023-04-16T20:34:02.323Z,2.55
2023-04-16T20:36:30.284Z,2.28
2023-04-16T20:39:02.270Z,3.05
2023-04-16T20:41:30.933Z,1.92
2023-04-16T20:44:05.155Z,2.30
2023-04-16T20:46:34.215Z,2.58
2023-04-16T20:49:02.458Z,2.58
2023-04-16T20:51:31.721Z,2.28
2023-04-16T20:54:01.141Z,2.30
2023-04-16T20:56:29.087Z,1.95
2023-04-16T20:58:57.958Z,2.25
2023-04-16T21:01:26.176Z,1.95
2023-04-16T21:03:54.439Z,1.45
2023-04-16T21:06:22.631Z,2.33
2023-04-16T21:08:50.569Z,2.42
2023-04-16T21:11:19.881Z,2.83
2023-04-16T21:13:47.886Z,3.67
2023-04-16T21:16:16.080Z,2.10
2023-04-16T21:18:43.977Z,1.90
2023-04-16T21:21:11.864Z,2.45
2023-04-16T21:23:39.675Z,2.15
2023-04-16T21:26:07.612Z,1.92
2023-04-16T21:28:37.007Z,1.90
2023-04-16T21:31:04.982Z,1.70
2023-04-16T21:33:32.932Z,2.03
2023-04-16T21:36:01.279Z,1.70
2023-04-16T21:38:29.172Z,1.80
2023-04-16T21:40:57.035Z,2.30
2023-04-16T21:43:25.122Z,2.17
2023-04-16T21:45:55.016Z,2.85
2023-04-16T21:48:23.929Z,1.90
2023-04-16T21:50:55.678Z,1.85
2023-04-16T21:53:23.673Z,2.03
2023-04-16T21:55:51.516Z,1.88
2023-04-16T21:58:19.480Z,1.88
2023-04-16T22:00:48.369Z,1.90
2023-04-16T22:03:18.864Z,2.00
2023-04-16T22:05:46.970Z,1.80
2023-04-16T22:08:24.012Z,2.20
2023-04-16T22:10:53.012Z,1.77
2023-04-16T22:13:21.696Z,2.10
2023-04-16T22:15:49.554Z,2.20
2023-04-16T22:18:19.049Z,1.70
2023-04-16T22:20:50.774Z,1.75
2023-04-16T22:23:18.635Z,1.80
2023-04-16T22:25:46.529Z,1.52
2023-04-16T22:28:14.476Z,1.90
2023-04-16T22:30:42.343Z,1.90
2023-04-16T22:33:10.301Z,2.00
2023-04-16T22:35:39.659Z,2.13
2023-04-16T22:38:07.802Z,1.80
2023-04-16T22:40:35.790Z,1.70
2023-04-16T22:43:04.707Z,1.70
2023-04-16T22:45:32.776Z,1.60
2023-04-16T22:48:00.837Z,2.10
2023-04-16T22:50:31.385Z,1.70
2023-04-16T22:53:00.868Z,1.65
2023-04-16T22:55:28.682Z,1.60
2023-04-16T22:57:56.552Z,2.65
2023-04-16T23:00:25.052Z,2.20
2023-04-16T23:02:53.040Z,2.00
2023-04-16T23:05:21.098Z,2.58
2023-04-16T23:07:48.983Z,1.48
2023-04-16T23:10:18.445Z,1.50
2023-04-16T23:12:46.504Z,1.27
2023-04-16T23:15:14.490Z,1.52
2023-04-16T23:17:42.543Z,1.50
2023-04-16T23:20:12.212Z,1.60
2023-04-16T23:22:40.179Z,1.40
2023-04-16T23:25:09.334Z,1.75
2023-04-16T23:27:38.884Z,1.70
2023-04-16T23:30:07.934Z,1.58
2023-04-16T23:32:36.141Z,1.40
2023-04-16T23:35:04.028Z,1.77
2023-04-16T23:37:31.924Z,1.67
2023-04-16T23:39:59.781Z,1.58
2023-04-16T23:42:28.162Z,1.67
2023-04-16T23:44:57.531Z,1.70
2023-04-16T23:47:25.589Z,1.38
2023-04-16T23:49:53.503Z,1.40
2023-04-16T23:52:21.367Z,1.90
2023-04-16T23:54:49.238Z,1.75
2023-04-16T23:57:17.083Z,1.60
2023-04-16T23:59:45.063Z,1.55
